This is the latest recevied weather packets stored in our database for station/object dl9mfl-6. If no packets are shown the sender has not sent any weather packets the latest 10 day(s).
| Time | Temp. | Humidity | Pressure | Rain* | Wind** | Luminosity | Snow |
|---|---|---|---|---|---|---|---|
| 1777737667 | 24.44° C | 31% | 1015.7 hPa | 0 mm | - | - | - |
| 1777737533 | 21.11° C | 38% | 1019.9 hPa | 0 mm | - | - | - |
| 1777737529 | 21.11° C | 38% | 1019.8 hPa | 0 mm | - | - | - |
| 1777737521 | 21.11° C | 38% | 1019.8 hPa | 0 mm | - | - | - |
| 1777737516 | 21.11° C | 38% | 1019.7 hPa | 0 mm | - | - | - |
| 1777737512 | 21.11° C | 38% | 1019.8 hPa | 0 mm | - | - | - |
| 1777737504 | 21.11° C | 38% | 1019.8 hPa | 0 mm | - | - | - |
| 1777737500 | 21.11° C | 37% | 1019.8 hPa | 0 mm | - | - | - |
| 1777737496 | 21.11° C | 37% | 1019.8 hPa | 0 mm | - | - | - |
| 1777737492 | 20.56° C | 37% | 1019.8 hPa | 0 mm | - | - | - |
| 1777737488 | 20.56° C | 38% | 1019.8 hPa | 0 mm | - | - | - |
| 1777737484 | 24.44° C | 31% | 1015.7 hPa | 0 mm | - | - | - |
| 1777737475 | 20.56° C | 38% | 1019.8 hPa | 0 mm | - | - | - |
| 1777737472 | 20.56° C | 36% | 1019.8 hPa | 0 mm | - | - | - |
| 1777737467 | 20.56° C | 37% | 1019.8 hPa | 0 mm | - | - | - |
| 1777737464 | 20.56° C | 38% | 1019.9 hPa | 0 mm | - | - | - |
| 1777737459 | 20.56° C | 38% | 1019.9 hPa | 0 mm | - | - | - |
| 1777737451 | 20.56° C | 39% | 1020 hPa | 0 mm | - | - | - |
| 1777737447 | 20.56° C | 39% | 1019.8 hPa | 0 mm | - | - | - |
| 1777737443 | 20.56° C | 39% | 1019.8 hPa | 0 mm | - | - | - |
| 1777737439 | 20.56° C | 38% | 1019.8 hPa | 0 mm | - | - | - |
| 1777737435 | 20.56° C | 39% | 1019.9 hPa | 0 mm | - | - | - |
| 1777737427 | 20.56° C | 38% | 1019.9 hPa | 0 mm | - | - | - |
| 1777737423 | 24.44° C | 31% | 1015.7 hPa | 0 mm | - | - | - |
| 1777737419 | 20.56° C | 39% | 1019.9 hPa | 0 mm | - | - | - |
* Rain latest hour (hover to see other rain measurements)
** Current wind speed in m/s (hover to see current wind gust speed)